createdAt,value
2023-12-09T00:01:45.237Z,38.90
2023-12-09T00:04:13.339Z,37.90
2023-12-09T00:06:49.645Z,33.70
2023-12-09T00:09:21.187Z,34.90
2023-12-09T00:11:49.395Z,36.80
2023-12-09T00:14:17.494Z,34.50
2023-12-09T00:16:46.705Z,38.40
2023-12-09T00:19:15.033Z,40.30
2023-12-09T00:21:43.325Z,36.40
2023-12-09T00:24:11.589Z,36.00
2023-12-09T00:26:39.825Z,36.50
2023-12-09T00:29:08.282Z,37.50
2023-12-09T00:31:36.202Z,35.50
2023-12-09T00:34:04.339Z,39.00
2023-12-09T00:36:32.808Z,36.30
2023-12-09T00:39:00.720Z,45.30
2023-12-09T00:41:29.166Z,38.10
2023-12-09T00:43:57.207Z,37.60
2023-12-09T00:46:25.539Z,38.80
2023-12-09T00:48:53.903Z,38.10
2023-12-09T00:51:22.142Z,35.80
2023-12-09T00:53:50.107Z,36.30
2023-12-09T00:56:33.197Z,38.50
2023-12-09T00:59:04.237Z,33.90
2023-12-09T01:01:34.688Z,34.80
2023-12-09T01:06:31.409Z,31.40
2023-12-09T01:08:59.548Z,36.90
2023-12-09T01:11:28.661Z,38.40
2023-12-09T01:13:56.710Z,32.60
2023-12-09T01:16:24.966Z,34.90
2023-12-09T01:18:53.432Z,32.10
2023-12-09T01:21:21.723Z,33.10
2023-12-09T01:23:50.059Z,35.20
2023-12-09T01:26:18.071Z,33.30
2023-12-09T01:28:46.096Z,37.50
2023-12-09T01:31:14.081Z,33.30
2023-12-09T01:33:42.788Z,34.20
2023-12-09T01:36:11.070Z,36.60
2023-12-09T01:38:38.992Z,37.00
2023-12-09T01:41:07.502Z,34.40
2023-12-09T01:43:35.526Z,37.80
2023-12-09T01:46:11.157Z,34.80
2023-12-09T01:48:39.780Z,37.00
2023-12-09T01:51:08.908Z,34.20
2023-12-09T01:53:37.444Z,31.50
2023-12-09T01:56:10.348Z,36.10
2023-12-09T01:58:38.998Z,37.20
2023-12-09T02:01:07.819Z,31.10
2023-12-09T02:03:36.329Z,37.00
2023-12-09T02:06:04.618Z,37.30
2023-12-09T02:08:33.600Z,33.60
2023-12-09T02:11:13.492Z,38.30
2023-12-09T02:14:08.937Z,38.70
2023-12-09T02:16:49.839Z,35.20
2023-12-09T02:19:19.387Z,39.20
2023-12-09T02:21:59.426Z,35.20
2023-12-09T02:24:27.937Z,32.20
2023-12-09T02:27:08.520Z,35.70
2023-12-09T02:29:52.724Z,39.00
2023-12-09T02:32:25.744Z,35.20
2023-12-09T02:34:56.624Z,36.80
2023-12-09T02:37:27.926Z,33.40
2023-12-09T02:39:59.130Z,36.00
2023-12-09T02:42:27.849Z,42.90
2023-12-09T02:44:57.531Z,38.90
2023-12-09T02:47:26.627Z,33.50
2023-12-09T02:49:55.538Z,34.10
2023-12-09T02:52:24.002Z,37.20
2023-12-09T02:54:51.943Z,38.40
2023-12-09T02:57:20.531Z,44.10
2023-12-09T02:59:48.644Z,42.60
2023-12-09T03:02:16.668Z,52.20
2023-12-09T03:04:45.854Z,43.00
2023-12-09T03:07:13.879Z,41.00
2023-12-09T03:09:41.816Z,40.80
2023-12-09T03:12:10.275Z,41.90
2023-12-09T03:14:38.353Z,40.70
2023-12-09T03:17:06.544Z,43.30
2023-12-09T03:19:35.168Z,41.70
2023-12-09T03:22:04.257Z,33.90
2023-12-09T03:24:32.383Z,37.10
2023-12-09T03:27:00.517Z,40.10
2023-12-09T03:29:28.688Z,35.20
2023-12-09T03:31:56.646Z,37.00
2023-12-09T03:34:24.560Z,38.50
2023-12-09T03:36:53.037Z,36.40
2023-12-09T03:39:21.304Z,32.80
2023-12-09T03:41:49.333Z,32.90
2023-12-09T03:44:17.511Z,33.30
2023-12-09T03:46:45.486Z,37.80
2023-12-09T03:49:13.831Z,36.50
2023-12-09T03:51:41.954Z,29.90
2023-12-09T03:54:10.073Z,27.10
2023-12-09T03:56:38.375Z,37.40
2023-12-09T03:59:06.448Z,34.50
2023-12-09T04:01:34.432Z,38.60
2023-12-09T04:04:02.730Z,40.20
2023-12-09T04:06:30.753Z,38.50
2023-12-09T04:08:58.675Z,36.50
2023-12-09T04:11:26.683Z,38.80
2023-12-09T04:13:54.567Z,37.20
2023-12-09T04:16:22.576Z,38.40
2023-12-09T04:18:51.954Z,36.30
2023-12-09T04:21:20.132Z,34.40
2023-12-09T04:23:48.895Z,34.90
2023-12-09T04:26:16.833Z,36.20
2023-12-09T04:28:44.673Z,37.70
2023-12-09T04:31:12.774Z,40.60
2023-12-09T04:33:40.731Z,37.30
2023-12-09T04:36:09.191Z,36.60
2023-12-09T04:38:37.499Z,38.20
2023-12-09T04:41:05.556Z,32.50
2023-12-09T04:43:33.811Z,38.10
2023-12-09T04:46:02.135Z,31.40
2023-12-09T04:48:30.172Z,33.30
2023-12-09T04:50:58.434Z,38.70
2023-12-09T04:53:26.780Z,37.70
2023-12-09T04:55:54.749Z,34.10
2023-12-09T04:58:22.722Z,31.60
2023-12-09T05:00:51.001Z,40.30
2023-12-09T05:03:19.124Z,34.30
2023-12-09T05:05:47.841Z,32.80
2023-12-09T05:08:15.981Z,31.30
2023-12-09T05:10:43.864Z,38.70
2023-12-09T05:13:12.273Z,36.10
2023-12-09T05:15:40.325Z,32.90
2023-12-09T05:18:08.645Z,39.90
2023-12-09T05:20:36.749Z,36.50
2023-12-09T05:23:05.968Z,41.50
2023-12-09T05:25:35.191Z,47.90
2023-12-09T05:28:04.134Z,43.80
2023-12-09T05:30:32.529Z,36.90
2023-12-09T05:33:01.023Z,35.50
2023-12-09T05:35:29.191Z,37.50
2023-12-09T05:37:57.689Z,35.70
2023-12-09T05:40:25.729Z,34.10
2023-12-09T05:42:53.698Z,41.00
2023-12-09T05:45:21.908Z,29.80
2023-12-09T05:47:50.211Z,31.00
2023-12-09T05:50:18.257Z,36.20
2023-12-09T05:52:47.165Z,28.30
2023-12-09T05:55:18.365Z,29.50
2023-12-09T05:57:46.652Z,37.40
2023-12-09T06:00:15.125Z,37.30
2023-12-09T06:02:43.137Z,30.70
2023-12-09T06:05:11.713Z,30.20
2023-12-09T06:07:39.899Z,35.80
2023-12-09T06:10:08.280Z,37.00
2023-12-09T06:12:36.720Z,38.70
2023-12-09T06:15:06.937Z,32.60
2023-12-09T06:17:35.281Z,33.80
2023-12-09T06:20:03.811Z,32.00
2023-12-09T06:22:32.278Z,35.50
2023-12-09T06:25:00.296Z,37.50
2023-12-09T06:27:29.285Z,32.90
2023-12-09T06:29:57.518Z,36.20
2023-12-09T06:32:25.920Z,31.20
2023-12-09T06:34:54.292Z,32.90
2023-12-09T06:37:22.258Z,30.80
2023-12-09T06:39:50.478Z,34.10
2023-12-09T06:42:18.628Z,37.20
2023-12-09T06:44:47.311Z,43.50
2023-12-09T06:47:15.529Z,49.20
2023-12-09T06:49:43.763Z,57.60
2023-12-09T06:52:11.989Z,59.70
2023-12-09T06:54:40.490Z,70.40
2023-12-09T06:57:08.793Z,70.50
2023-12-09T06:59:36.889Z,65.40
2023-12-09T07:02:04.989Z,68.70
2023-12-09T07:04:37.580Z,79.70
2023-12-09T07:07:09.879Z,78.40
2023-12-09T07:09:39.922Z,69.20
2023-12-09T07:12:08.450Z,65.90
2023-12-09T07:14:36.412Z,56.40
2023-12-09T07:17:04.654Z,44.10
2023-12-09T07:19:33.598Z,59.70
2023-12-09T07:22:04.501Z,55.80
2023-12-09T07:24:32.698Z,56.30
2023-12-09T07:27:01.036Z,50.80
2023-12-09T07:29:30.934Z,55.80
2023-12-09T07:32:00.603Z,52.90
2023-12-09T07:34:28.859Z,55.10
2023-12-09T07:36:57.491Z,69.30
2023-12-09T07:39:25.307Z,53.70
2023-12-09T07:41:53.965Z,63.20
2023-12-09T07:44:21.983Z,61.80
2023-12-09T07:46:50.284Z,59.50
2023-12-09T07:49:18.342Z,56.30
2023-12-09T07:51:46.396Z,63.50
2023-12-09T07:54:15.061Z,59.80
2023-12-09T07:56:43.000Z,62.90
2023-12-09T07:59:11.450Z,59.40
2023-12-09T08:01:39.877Z,58.80
2023-12-09T08:04:08.335Z,52.30
2023-12-09T08:06:36.760Z,66.30
2023-12-09T08:09:05.821Z,77.60
2023-12-09T08:11:33.722Z,93.10
2023-12-09T08:14:02.171Z,82.10
2023-12-09T08:16:30.235Z,70.40
2023-12-09T08:18:58.462Z,70.60
2023-12-09T08:21:26.864Z,56.00
2023-12-09T08:23:55.816Z,53.20
2023-12-09T08:26:24.387Z,49.20
2023-12-09T08:28:52.383Z,39.20
2023-12-09T08:31:20.287Z,44.50
2023-12-09T08:33:48.867Z,45.60
2023-12-09T08:36:17.043Z,44.70
2023-12-09T08:38:45.044Z,43.10
2023-12-09T08:41:13.194Z,46.40
2023-12-09T08:43:41.098Z,44.80
2023-12-09T08:46:08.982Z,41.80
2023-12-09T08:48:37.371Z,32.20
2023-12-09T08:51:05.821Z,34.30
2023-12-09T08:53:34.417Z,38.30
2023-12-09T08:56:02.323Z,32.20
2023-12-09T08:58:30.418Z,45.90
2023-12-09T09:00:58.374Z,40.70
2023-12-09T09:03:27.237Z,33.90
2023-12-09T09:05:55.479Z,34.40
2023-12-09T09:08:23.469Z,29.50
2023-12-09T09:10:51.730Z,29.60
2023-12-09T09:13:20.411Z,35.90
2023-12-09T09:15:48.420Z,26.60
2023-12-09T09:18:16.503Z,25.70
2023-12-09T09:20:44.634Z,31.60
2023-12-09T09:23:14.050Z,33.50
2023-12-09T09:25:42.480Z,44.60
2023-12-09T09:28:10.460Z,29.10
2023-12-09T09:30:38.379Z,28.60
2023-12-09T09:33:07.993Z,31.20
2023-12-09T09:35:36.098Z,32.90
2023-12-09T09:38:04.060Z,32.70
2023-12-09T09:40:31.891Z,38.50
2023-12-09T09:43:08.858Z,33.50
2023-12-09T09:45:38.030Z,34.60
2023-12-09T09:48:07.509Z,31.60
2023-12-09T09:50:42.752Z,34.10
2023-12-09T09:53:13.898Z,29.40
2023-12-09T09:55:43.308Z,28.20
2023-12-09T09:58:14.550Z,25.40
2023-12-09T10:00:43.210Z,28.10
2023-12-09T10:03:11.558Z,40.20
2023-12-09T10:05:39.920Z,28.70
2023-12-09T10:08:07.912Z,39.00
2023-12-09T10:10:36.588Z,23.20
2023-12-09T10:13:05.016Z,24.40
2023-12-09T10:15:33.762Z,24.40
2023-12-09T10:18:05.020Z,21.20
2023-12-09T10:20:36.320Z,17.20
2023-12-09T10:23:04.576Z,18.90
2023-12-09T10:25:32.584Z,25.40
2023-12-09T10:28:00.718Z,19.50
2023-12-09T10:30:29.108Z,25.10
2023-12-09T10:32:57.854Z,23.80
2023-12-09T10:35:26.022Z,23.80
2023-12-09T10:37:55.348Z,21.60
2023-12-09T10:40:26.032Z,18.00
2023-12-09T10:42:57.619Z,19.60
2023-12-09T10:47:55.077Z,14.90
2023-12-09T10:50:24.103Z,16.90
2023-12-09T10:52:52.090Z,15.20
2023-12-09T10:55:20.822Z,13.90
2023-12-09T10:57:51.355Z,14.20
2023-12-09T11:00:20.242Z,16.60
2023-12-09T11:02:48.457Z,15.20
2023-12-09T11:05:18.374Z,13.30
2023-12-09T11:07:50.397Z,11.80
2023-12-09T11:10:20.298Z,12.90
2023-12-09T11:12:49.046Z,11.90
2023-12-09T11:15:17.094Z,15.10
2023-12-09T11:17:46.406Z,13.40
2023-12-09T11:20:18.023Z,12.20
2023-12-09T11:22:48.370Z,13.20
2023-12-09T11:25:26.560Z,15.20
2023-12-09T11:27:55.395Z,17.40
2023-12-09T11:30:37.988Z,15.20
2023-12-09T11:33:06.580Z,15.00
2023-12-09T11:35:38.948Z,17.60
2023-12-09T11:38:09.160Z,15.10
2023-12-09T11:40:37.760Z,17.90
2023-12-09T11:43:07.806Z,16.10
2023-12-09T11:45:38.511Z,12.30
2023-12-09T11:50:35.609Z,12.10
2023-12-09T11:53:03.873Z,12.00
2023-12-09T11:55:32.365Z,12.70
2023-12-09T11:58:00.399Z,12.90
2023-12-09T12:00:28.497Z,13.20
2023-12-09T12:02:56.739Z,18.20
2023-12-09T12:05:24.728Z,16.60
2023-12-09T12:07:53.985Z,12.40
2023-12-09T12:10:23.612Z,17.40
2023-12-09T12:12:51.839Z,19.70
2023-12-09T12:15:20.382Z,17.00
2023-12-09T12:17:50.056Z,18.60
2023-12-09T12:20:18.473Z,15.30
2023-12-09T12:22:46.888Z,17.80
2023-12-09T12:25:15.044Z,20.10
2023-12-09T12:27:47.876Z,18.60
2023-12-09T12:30:16.460Z,15.50
2023-12-09T12:32:56.640Z,21.40
2023-12-09T12:35:26.474Z,19.90
2023-12-09T12:37:58.337Z,18.30
2023-12-09T12:40:27.929Z,18.60
2023-12-09T12:42:56.428Z,21.50
2023-12-09T12:45:28.604Z,24.30
2023-12-09T12:47:57.807Z,23.50
2023-12-09T12:50:26.030Z,17.50
2023-12-09T12:52:54.436Z,22.70
2023-12-09T12:55:23.353Z,23.00
2023-12-09T12:57:52.476Z,22.70
2023-12-09T13:00:21.794Z,23.00
2023-12-09T13:02:49.886Z,23.30
2023-12-09T13:05:18.014Z,26.30
2023-12-09T13:07:46.208Z,24.50
2023-12-09T13:10:14.294Z,25.80
2023-12-09T13:12:43.112Z,31.00
2023-12-09T13:15:11.932Z,24.20
2023-12-09T13:17:40.664Z,28.20
2023-12-09T13:20:11.137Z,28.90
2023-12-09T13:25:09.872Z,22.10
2023-12-09T13:27:38.878Z,23.20
2023-12-09T13:30:08.465Z,24.40
2023-12-09T13:32:37.588Z,26.60
2023-12-09T13:35:08.051Z,19.80
2023-12-09T13:37:38.091Z,25.80
2023-12-09T13:40:10.917Z,25.80
2023-12-09T13:42:39.497Z,22.70
2023-12-09T13:45:08.478Z,22.40
2023-12-09T13:47:37.159Z,24.60
2023-12-09T13:50:06.720Z,22.20
2023-12-09T13:52:35.611Z,24.10
2023-12-09T13:55:04.922Z,24.80
2023-12-09T13:57:33.983Z,20.40
2023-12-09T14:00:09.311Z,29.80
2023-12-09T14:02:41.062Z,23.30
2023-12-09T14:05:11.738Z,25.90
2023-12-09T14:07:41.783Z,38.80
2023-12-09T14:10:10.470Z,33.40
2023-12-09T14:12:38.932Z,31.20
2023-12-09T14:15:08.783Z,23.60
2023-12-09T14:17:37.980Z,26.00
2023-12-09T14:20:07.530Z,26.30
2023-12-09T14:22:35.955Z,32.30
2023-12-09T14:25:05.257Z,28.30
2023-12-09T14:27:33.638Z,33.60
2023-12-09T14:30:01.889Z,30.20
2023-12-09T14:32:30.071Z,39.50
2023-12-09T14:34:58.660Z,50.70
2023-12-09T14:37:26.876Z,45.10
2023-12-09T14:39:55.003Z,44.10
2023-12-09T14:42:23.167Z,40.60
2023-12-09T14:44:51.633Z,40.80
2023-12-09T14:47:20.187Z,39.50
2023-12-09T14:49:49.530Z,41.20
2023-12-09T14:52:17.968Z,41.10
2023-12-09T14:54:46.290Z,46.60
2023-12-09T14:57:14.917Z,51.40
2023-12-09T14:59:43.204Z,49.10
2023-12-09T15:02:11.307Z,55.40
2023-12-09T15:04:39.497Z,54.20
2023-12-09T15:07:08.290Z,55.60
2023-12-09T15:09:37.153Z,48.40
2023-12-09T15:12:05.682Z,43.90
2023-12-09T15:14:33.663Z,40.00
2023-12-09T15:17:01.943Z,41.20
2023-12-09T15:19:30.001Z,32.00
2023-12-09T15:21:58.596Z,34.20
2023-12-09T15:24:26.578Z,41.10
2023-12-09T15:26:54.589Z,39.40
2023-12-09T15:29:22.718Z,38.00
2023-12-09T15:31:50.639Z,34.40
2023-12-09T15:34:19.154Z,29.30
2023-12-09T15:36:47.916Z,24.70
2023-12-09T15:39:17.637Z,26.00
2023-12-09T15:41:45.941Z,22.40
2023-12-09T15:44:13.898Z,27.60
2023-12-09T15:46:41.949Z,27.90
2023-12-09T15:49:10.250Z,31.80
2023-12-09T15:51:38.385Z,30.60
2023-12-09T15:54:09.280Z,29.30
2023-12-09T15:56:37.444Z,33.30
2023-12-09T15:59:05.376Z,35.00
2023-12-09T16:01:33.448Z,32.80
2023-12-09T16:04:01.525Z,36.20
2023-12-09T16:06:29.668Z,38.00
2023-12-09T16:08:57.903Z,39.40
2023-12-09T16:11:25.924Z,36.50
2023-12-09T16:13:54.094Z,39.70
2023-12-09T16:16:23.144Z,51.00
2023-12-09T16:18:51.529Z,62.40
2023-12-09T16:21:19.873Z,61.70
2023-12-09T16:23:47.848Z,62.10
2023-12-09T16:26:16.371Z,59.50
2023-12-09T16:28:46.785Z,59.60
2023-12-09T16:31:16.875Z,52.80
2023-12-09T16:33:45.019Z,50.50
2023-12-09T16:36:13.610Z,51.50
2023-12-09T16:38:41.715Z,64.60
2023-12-09T16:41:09.740Z,56.20
2023-12-09T16:43:37.888Z,55.20
2023-12-09T16:46:06.164Z,36.30
2023-12-09T16:48:34.756Z,34.90
2023-12-09T16:51:02.953Z,35.00
2023-12-09T16:53:31.666Z,51.70
2023-12-09T16:56:00.928Z,51.40
2023-12-09T16:58:29.012Z,48.40
2023-12-09T17:00:57.241Z,50.80
2023-12-09T17:03:25.619Z,53.00
2023-12-09T17:05:53.723Z,53.40
2023-12-09T17:08:21.708Z,43.20
2023-12-09T17:10:49.872Z,45.80
2023-12-09T17:13:17.884Z,36.40
2023-12-09T17:15:45.851Z,41.00
2023-12-09T17:18:14.175Z,43.50
2023-12-09T17:20:42.385Z,36.20
2023-12-09T17:23:10.746Z,50.30
2023-12-09T17:25:38.641Z,67.00
2023-12-09T17:28:06.734Z,66.10
2023-12-09T17:30:35.472Z,59.40
2023-12-09T17:33:04.613Z,50.80
2023-12-09T17:35:32.758Z,49.60
2023-12-09T17:38:00.951Z,48.90
2023-12-09T17:40:29.082Z,47.80
2023-12-09T17:42:57.503Z,50.70
2023-12-09T17:45:25.959Z,54.20
2023-12-09T17:47:54.301Z,62.20
2023-12-09T17:50:23.001Z,63.10
2023-12-09T17:52:52.433Z,70.50
2023-12-09T17:55:20.581Z,57.70
2023-12-09T17:57:49.591Z,59.00
2023-12-09T18:00:17.830Z,65.20
2023-12-09T18:02:46.044Z,67.00
2023-12-09T18:05:14.298Z,69.90
2023-12-09T18:07:42.651Z,72.20
2023-12-09T18:10:10.838Z,85.00
2023-12-09T18:12:38.965Z,83.50
2023-12-09T18:15:08.549Z,79.90
2023-12-09T18:17:36.879Z,75.20
2023-12-09T18:20:06.360Z,79.30
2023-12-09T18:22:34.613Z,59.50
2023-12-09T18:25:02.677Z,69.50
2023-12-09T18:27:32.739Z,65.40
2023-12-09T18:30:01.091Z,68.10
2023-12-09T18:32:34.523Z,64.20
2023-12-09T18:35:09.317Z,72.20
2023-12-09T18:37:38.049Z,63.00
2023-12-09T18:40:07.520Z,62.90
2023-12-09T18:42:35.973Z,62.00
2023-12-09T18:45:05.761Z,58.30
2023-12-09T18:47:36.198Z,66.90
2023-12-09T18:50:04.757Z,70.80
2023-12-09T18:52:33.697Z,64.40
2023-12-09T18:55:02.355Z,77.00
2023-12-09T18:57:31.168Z,64.50
2023-12-09T19:00:05.845Z,70.80
2023-12-09T19:02:34.663Z,66.80
2023-12-09T19:05:03.365Z,64.50
2023-12-09T19:07:31.799Z,53.60
2023-12-09T19:10:04.897Z,60.20
2023-12-09T19:12:34.722Z,61.30
2023-12-09T19:15:03.867Z,64.50
2023-12-09T19:17:32.378Z,60.90
2023-12-09T19:20:00.783Z,60.60
2023-12-09T19:22:29.474Z,64.80
2023-12-09T19:24:57.757Z,62.90
2023-12-09T19:27:26.116Z,72.90
2023-12-09T19:29:54.893Z,75.70
2023-12-09T19:32:23.132Z,74.90
2023-12-09T19:34:51.551Z,71.70
2023-12-09T19:37:19.661Z,76.90
2023-12-09T19:39:50.193Z,73.30
2023-12-09T19:42:19.602Z,74.10
2023-12-09T19:44:47.955Z,83.40
2023-12-09T19:47:15.970Z,76.60
2023-12-09T19:49:44.438Z,80.20
2023-12-09T19:52:15.337Z,74.80
2023-12-09T19:54:43.622Z,70.90
2023-12-09T19:57:11.527Z,73.50
2023-12-09T19:59:43.258Z,61.30
2023-12-09T20:02:11.209Z,64.20
2023-12-09T20:04:39.249Z,61.90
2023-12-09T20:07:08.448Z,55.30
2023-12-09T20:09:36.625Z,56.30
2023-12-09T20:12:05.760Z,57.30
2023-12-09T20:14:36.746Z,59.50
2023-12-09T20:17:07.074Z,59.90
2023-12-09T20:19:39.052Z,59.00
2023-12-09T20:22:10.771Z,69.80
2023-12-09T20:24:39.497Z,74.10
2023-12-09T20:27:07.975Z,78.50
2023-12-09T20:29:40.130Z,82.40
2023-12-09T20:32:08.874Z,72.90
2023-12-09T20:34:37.095Z,71.60
2023-12-09T20:37:05.941Z,72.40
2023-12-09T20:39:34.425Z,69.40
2023-12-09T20:42:02.621Z,79.40
2023-12-09T20:44:30.969Z,64.10
2023-12-09T20:47:00.046Z,70.20
2023-12-09T20:49:28.523Z,71.00
2023-12-09T20:51:56.944Z,73.70
2023-12-09T20:54:29.392Z,70.20
2023-12-09T20:56:57.662Z,69.90
2023-12-09T20:59:25.970Z,69.00
2023-12-09T21:01:55.884Z,65.30
2023-12-09T21:04:26.961Z,63.10
2023-12-09T21:06:55.090Z,72.40
2023-12-09T21:09:23.499Z,74.10
2023-12-09T21:11:51.630Z,70.50
2023-12-09T21:14:20.819Z,71.50
2023-12-09T21:16:48.793Z,74.60
2023-12-09T21:19:18.621Z,72.90
2023-12-09T21:21:46.760Z,66.70
2023-12-09T21:24:14.932Z,75.00
2023-12-09T21:26:43.324Z,62.40
2023-12-09T21:29:12.143Z,65.10
2023-12-09T21:31:40.149Z,68.60
2023-12-09T21:34:08.388Z,72.20
2023-12-09T21:36:36.392Z,68.50
2023-12-09T21:39:05.037Z,66.40
2023-12-09T21:41:33.246Z,80.20
2023-12-09T21:44:01.457Z,71.30
2023-12-09T21:46:29.852Z,73.60
2023-12-09T21:48:59.660Z,80.80
2023-12-09T21:51:29.423Z,93.10
2023-12-09T21:53:58.161Z,105.20
2023-12-09T21:56:29.514Z,89.20
2023-12-09T21:58:57.725Z,89.50
2023-12-09T22:01:26.425Z,84.00
2023-12-09T22:03:54.417Z,90.60
2023-12-09T22:06:22.559Z,85.00
2023-12-09T22:08:50.661Z,82.70
2023-12-09T22:11:18.860Z,86.60
2023-12-09T22:13:47.396Z,83.00
2023-12-09T22:16:20.788Z,88.90
2023-12-09T22:18:49.786Z,81.10
2023-12-09T22:21:18.218Z,88.80
2023-12-09T22:23:46.428Z,77.80
2023-12-09T22:26:14.659Z,78.00
2023-12-09T22:28:43.179Z,84.20
2023-12-09T22:31:11.786Z,80.10
2023-12-09T22:33:41.578Z,74.80
2023-12-09T22:36:10.418Z,77.70
2023-12-09T22:38:38.629Z,74.70
2023-12-09T22:41:06.892Z,67.80
2023-12-09T22:43:35.026Z,73.00
2023-12-09T22:46:03.257Z,76.70
2023-12-09T22:48:31.496Z,81.90
2023-12-09T22:50:59.682Z,85.70
2023-12-09T22:53:28.215Z,95.40
2023-12-09T22:56:12.057Z,82.80
2023-12-09T22:58:42.315Z,82.80
2023-12-09T23:01:11.428Z,75.80
2023-12-09T23:03:39.918Z,86.10
2023-12-09T23:06:09.394Z,72.50
2023-12-09T23:08:40.369Z,76.00
2023-12-09T23:11:08.834Z,83.40
2023-12-09T23:13:36.884Z,77.80
2023-12-09T23:16:05.708Z,83.50
2023-12-09T23:18:33.886Z,80.40
2023-12-09T23:21:03.176Z,87.30
2023-12-09T23:23:31.454Z,88.50
2023-12-09T23:25:59.659Z,83.80
2023-12-09T23:28:28.527Z,93.80
2023-12-09T23:30:56.905Z,90.50
2023-12-09T23:33:25.038Z,80.40
2023-12-09T23:35:53.466Z,73.10
2023-12-09T23:38:22.303Z,89.30
2023-12-09T23:40:51.650Z,94.80
2023-12-09T23:43:19.849Z,91.70
2023-12-09T23:45:48.030Z,86.90
2023-12-09T23:48:18.665Z,72.50
2023-12-09T23:50:47.609Z,69.80
2023-12-09T23:53:18.179Z,58.80
2023-12-09T23:55:46.494Z,60.70
2023-12-09T23:58:16.068Z,55.90
